createdAt,value
2019-03-20T00:00:42.837Z,99.90
2019-03-20T00:03:13.331Z,99.90
2019-03-20T00:05:44.322Z,99.90
2019-03-20T00:08:15.262Z,99.90
2019-03-20T00:10:46.194Z,99.90
2019-03-20T00:13:16.453Z,99.90
2019-03-20T00:15:47.475Z,99.90
2019-03-20T00:18:18.413Z,99.90
2019-03-20T00:20:49.776Z,99.90
2019-03-20T00:23:20.542Z,99.90
2019-03-20T00:25:51.455Z,99.90
2019-03-20T00:28:21.599Z,99.90
2019-03-20T00:30:52.720Z,99.90
2019-03-20T00:33:22.954Z,99.90
2019-03-20T00:35:53.995Z,99.90
2019-03-20T00:38:25.147Z,99.90
2019-03-20T00:40:57.107Z,99.90
2019-03-20T00:43:28.223Z,99.90
2019-03-20T00:45:59.398Z,99.90
2019-03-20T00:48:29.733Z,99.90
2019-03-20T00:51:00.642Z,99.90
2019-03-20T00:53:31.554Z,99.90
2019-03-20T00:56:02.570Z,99.90
2019-03-20T00:58:33.306Z,99.90
2019-03-20T01:01:04.062Z,99.90
2019-03-20T01:03:34.374Z,99.90
2019-03-20T01:06:04.910Z,99.90
2019-03-20T01:08:35.784Z,99.90
2019-03-20T01:11:07.195Z,99.90
2019-03-20T01:13:38.070Z,99.90
2019-03-20T01:16:09.289Z,99.90
2019-03-20T01:18:40.018Z,99.90
2019-03-20T01:21:11.122Z,99.90
2019-03-20T01:23:42.694Z,99.90
2019-03-20T01:26:13.883Z,99.90
2019-03-20T01:28:44.217Z,99.90
2019-03-20T01:31:15.151Z,99.90
2019-03-20T01:33:45.614Z,99.90
2019-03-20T01:36:16.589Z,99.90
2019-03-20T01:38:47.372Z,99.90
2019-03-20T01:41:18.503Z,99.90
2019-03-20T01:43:49.644Z,99.90
2019-03-20T01:46:20.396Z,99.90
2019-03-20T01:48:51.544Z,99.90
2019-03-20T01:51:22.694Z,99.90
2019-03-20T01:53:53.816Z,99.90
2019-03-20T01:56:24.332Z,99.90
2019-03-20T01:58:54.911Z,99.90
2019-03-20T02:01:25.450Z,99.90
2019-03-20T02:03:55.776Z,99.90
2019-03-20T02:06:27.137Z,99.90
2019-03-20T02:08:58.281Z,99.90
2019-03-20T02:11:29.212Z,99.90
2019-03-20T02:13:59.268Z,99.90
2019-03-20T02:16:30.083Z,99.90
2019-03-20T02:19:01.226Z,99.90
2019-03-20T02:21:33.809Z,99.90
2019-03-20T02:24:04.130Z,99.90
2019-03-20T02:26:34.813Z,99.90
2019-03-20T02:29:06.428Z,99.90
2019-03-20T02:31:37.585Z,99.90
2019-03-20T02:34:07.710Z,99.90
2019-03-20T02:36:38.785Z,99.90
2019-03-20T02:39:09.591Z,99.90
2019-03-20T02:41:40.534Z,99.90
2019-03-20T02:44:11.689Z,99.90
2019-03-20T02:46:42.583Z,99.90
2019-03-20T02:49:12.955Z,99.90
2019-03-20T02:51:44.504Z,99.90
2019-03-20T02:54:15.670Z,99.90
2019-03-20T02:56:45.734Z,99.90
2019-03-20T02:59:17.738Z,99.90
2019-03-20T03:01:49.930Z,99.90
2019-03-20T03:04:20.657Z,99.90
2019-03-20T03:06:51.145Z,99.90
2019-03-20T03:09:22.145Z,99.90
2019-03-20T03:11:52.687Z,99.90
2019-03-20T03:14:22.814Z,99.90
2019-03-20T03:16:53.944Z,99.90
2019-03-20T03:19:26.785Z,99.90
2019-03-20T03:21:57.618Z,99.90
2019-03-20T03:24:28.402Z,99.90
2019-03-20T03:26:59.166Z,99.90
2019-03-20T03:29:30.503Z,99.90
2019-03-20T03:32:01.396Z,99.90
2019-03-20T03:34:31.493Z,99.90
2019-03-20T03:37:02.458Z,99.90
2019-03-20T03:39:33.264Z,99.90
2019-03-20T03:42:04.952Z,99.90
2019-03-20T03:44:35.806Z,99.90
2019-03-20T03:47:06.495Z,99.90
2019-03-20T03:49:37.448Z,99.90
2019-03-20T03:52:07.969Z,99.90
2019-03-20T03:54:38.702Z,99.90
2019-03-20T03:57:08.928Z,99.90
2019-03-20T03:59:40.187Z,99.90
2019-03-20T04:02:10.705Z,99.90
2019-03-20T04:04:40.835Z,99.90
2019-03-20T04:07:11.987Z,99.90
2019-03-20T04:09:42.898Z,99.90
2019-03-20T04:12:13.491Z,99.90
2019-03-20T04:14:43.986Z,99.90
2019-03-20T04:17:28.805Z,99.90
2019-03-20T04:19:59.801Z,99.90
2019-03-20T04:22:30.960Z,99.90
2019-03-20T04:25:01.833Z,99.90
2019-03-20T04:27:33.059Z,99.90
2019-03-20T04:30:05.199Z,99.90
2019-03-20T04:32:35.343Z,99.90
2019-03-20T04:35:06.689Z,99.90
2019-03-20T04:37:37.842Z,99.90
2019-03-20T04:40:08.996Z,99.90
2019-03-20T04:42:39.244Z,99.90
2019-03-20T04:45:12.532Z,99.90
2019-03-20T04:47:42.868Z,99.90
2019-03-20T04:50:13.994Z,99.90
2019-03-20T04:52:44.050Z,99.90
2019-03-20T04:55:15.468Z,99.90
2019-03-20T04:57:46.824Z,99.90
2019-03-20T05:00:18.200Z,99.90
2019-03-20T05:02:48.911Z,99.90
2019-03-20T05:05:20.063Z,99.90
2019-03-20T05:07:50.841Z,99.90
2019-03-20T05:10:21.257Z,99.90
2019-03-20T05:12:51.806Z,99.90
2019-03-20T05:15:22.603Z,99.90
2019-03-20T05:17:53.541Z,99.90
2019-03-20T05:20:24.278Z,99.90
2019-03-20T05:22:54.556Z,99.90
2019-03-20T05:25:25.148Z,99.90
2019-03-20T05:27:56.085Z,99.90
2019-03-20T05:30:27.226Z,99.90
2019-03-20T05:32:57.237Z,99.90
2019-03-20T05:35:28.509Z,99.90
2019-03-20T05:37:58.979Z,99.90
2019-03-20T05:40:31.403Z,99.90
2019-03-20T05:43:02.157Z,99.90
2019-03-20T05:45:32.279Z,99.90
2019-03-20T05:48:02.759Z,99.90
2019-03-20T05:50:33.959Z,99.90
2019-03-20T05:53:04.511Z,99.90
2019-03-20T05:55:36.664Z,99.90
2019-03-20T05:58:07.155Z,99.90
2019-03-20T06:00:37.735Z,99.90
2019-03-20T06:03:08.887Z,99.90
2019-03-20T06:05:40.026Z,99.90
2019-03-20T06:08:10.969Z,99.90
2019-03-20T06:10:41.037Z,99.90
2019-03-20T06:13:11.831Z,99.90
2019-03-20T06:15:42.582Z,99.90
2019-03-20T06:18:13.059Z,99.90
2019-03-20T06:20:45.086Z,99.90
2019-03-20T06:23:15.753Z,99.90
2019-03-20T06:25:46.539Z,99.90
2019-03-20T06:28:17.445Z,99.90
2019-03-20T06:30:47.958Z,99.90
2019-03-20T06:33:19.382Z,99.90
2019-03-20T06:35:50.861Z,99.90
2019-03-20T06:38:21.209Z,99.90
2019-03-20T06:41:01.918Z,99.90
2019-03-20T06:43:40.793Z,99.90
2019-03-20T06:46:11.621Z,99.90
2019-03-20T06:48:42.185Z,99.90
2019-03-20T06:51:12.922Z,99.90
2019-03-20T06:53:43.164Z,99.90
2019-03-20T06:56:14.451Z,99.90
2019-03-20T06:58:45.155Z,99.90
2019-03-20T07:01:25.341Z,99.90
2019-03-20T07:04:12.753Z,99.90
2019-03-20T07:07:15.408Z,99.90
2019-03-20T07:10:13.879Z,99.90
2019-03-20T07:12:45.083Z,99.90
2019-03-20T07:15:16.004Z,99.90
2019-03-20T07:17:46.381Z,99.90
2019-03-20T07:20:17.321Z,99.90
2019-03-20T07:22:48.269Z,99.90
2019-03-20T07:25:19.202Z,99.90
2019-03-20T07:27:49.737Z,99.90
2019-03-20T07:30:19.823Z,99.90
2019-03-20T07:32:50.338Z,99.90
2019-03-20T07:35:20.474Z,99.90
2019-03-20T07:37:55.867Z,99.90
2019-03-20T07:40:23.835Z,99.90
2019-03-20T07:42:55.190Z,99.90
2019-03-20T07:45:27.370Z,99.90
2019-03-20T07:47:58.311Z,99.90
2019-03-20T07:50:36.877Z,99.90
2019-03-20T07:53:07.919Z,99.90
2019-03-20T07:55:38.254Z,99.90
2019-03-20T07:58:09.870Z,99.90
2019-03-20T08:00:41.014Z,98.50
2019-03-20T08:03:11.815Z,96.60
2019-03-20T08:05:42.919Z,95.40
2019-03-20T08:08:13.845Z,94.10
2019-03-20T08:10:44.994Z,92.30
2019-03-20T08:13:16.344Z,90.60
2019-03-20T08:15:47.248Z,87.20
2019-03-20T08:18:17.610Z,81.00
2019-03-20T08:20:48.557Z,79.60
2019-03-20T08:23:20.250Z,76.90
2019-03-20T08:25:51.079Z,74.00
2019-03-20T08:28:22.210Z,73.60
2019-03-20T08:30:52.698Z,71.50
2019-03-20T08:33:23.900Z,71.50
2019-03-20T08:35:55.242Z,69.50
2019-03-20T08:38:25.994Z,68.40
2019-03-20T08:40:56.844Z,67.40
2019-03-20T08:43:28.080Z,64.60
2019-03-20T08:45:58.612Z,63.30
2019-03-20T08:48:28.740Z,63.30
2019-03-20T08:50:59.854Z,62.10
2019-03-20T08:53:30.624Z,60.20
2019-03-20T08:56:01.452Z,59.20
2019-03-20T08:58:32.710Z,57.90
2019-03-20T09:01:03.062Z,56.90
2019-03-20T09:03:33.696Z,55.60
2019-03-20T09:06:04.728Z,54.20
2019-03-20T09:08:35.179Z,53.20
2019-03-20T09:11:05.991Z,51.90
2019-03-20T09:13:36.792Z,51.90
2019-03-20T09:16:07.488Z,51.30
2019-03-20T09:18:38.189Z,49.90
2019-03-20T09:21:08.744Z,49.30
2019-03-20T09:23:40.815Z,49.80
2019-03-20T09:26:11.591Z,49.00
2019-03-20T09:28:42.798Z,48.60
2019-03-20T09:31:14.157Z,48.10
2019-03-20T09:33:44.283Z,46.90
2019-03-20T09:36:15.885Z,46.50
2019-03-20T09:38:46.089Z,44.70
2019-03-20T09:41:17.313Z,44.50
2019-03-20T09:43:48.186Z,44.70
2019-03-20T09:46:18.824Z,44.40
2019-03-20T09:48:48.903Z,44.30
2019-03-20T09:51:20.270Z,44.00
2019-03-20T09:53:50.579Z,43.40
2019-03-20T09:56:21.740Z,43.00
2019-03-20T09:58:52.073Z,42.20
2019-03-20T10:01:22.605Z,42.40
2019-03-20T10:03:53.135Z,41.10
2019-03-20T10:06:24.081Z,40.60
2019-03-20T10:08:55.015Z,39.50
2019-03-20T10:11:25.764Z,39.50
2019-03-20T10:13:56.708Z,39.40
2019-03-20T10:16:27.324Z,38.70
2019-03-20T10:18:58.463Z,38.90
2019-03-20T10:21:29.949Z,37.90
2019-03-20T10:24:00.327Z,37.10
2019-03-20T10:26:31.013Z,37.70
2019-03-20T10:29:01.613Z,38.00
2019-03-20T10:31:32.895Z,38.50
2019-03-20T10:34:03.645Z,38.10
2019-03-20T10:36:34.627Z,38.10
2019-03-20T10:39:08.809Z,36.50
2019-03-20T10:41:38.721Z,36.90
2019-03-20T10:44:09.199Z,35.70
2019-03-20T10:46:40.403Z,35.90
2019-03-20T10:49:10.455Z,35.20
2019-03-20T10:51:40.658Z,35.20
2019-03-20T10:54:12.005Z,35.30
2019-03-20T10:56:42.949Z,35.10
2019-03-20T10:59:13.694Z,35.00
2019-03-20T11:01:44.041Z,34.90
2019-03-20T11:04:14.737Z,35.30
2019-03-20T11:06:45.920Z,35.20
2019-03-20T11:09:18.468Z,35.30
2019-03-20T11:11:49.599Z,35.20
2019-03-20T11:14:20.380Z,35.10
2019-03-20T11:16:51.336Z,34.80
2019-03-20T11:19:22.682Z,34.00
2019-03-20T11:21:53.608Z,34.60
2019-03-20T11:24:24.421Z,34.90
2019-03-20T11:26:58.622Z,34.00
2019-03-20T11:29:29.379Z,34.20
2019-03-20T11:32:00.044Z,34.80
2019-03-20T11:34:30.382Z,34.20
2019-03-20T11:37:01.110Z,33.70
2019-03-20T11:39:31.392Z,33.50
2019-03-20T11:42:02.167Z,33.20
2019-03-20T11:44:32.715Z,32.70
2019-03-20T11:47:03.446Z,32.80
2019-03-20T11:49:34.196Z,32.60
2019-03-20T11:52:06.433Z,32.50
2019-03-20T11:54:36.996Z,32.90
2019-03-20T11:57:10.296Z,33.00
2019-03-20T11:59:40.715Z,34.00
2019-03-20T12:02:11.774Z,34.10
2019-03-20T12:04:42.441Z,33.50
2019-03-20T12:07:13.442Z,34.10
2019-03-20T12:09:44.814Z,34.80
2019-03-20T12:12:15.746Z,33.90
2019-03-20T12:14:46.296Z,33.60
2019-03-20T12:17:16.846Z,34.10
2019-03-20T12:19:46.873Z,33.90
2019-03-20T12:22:17.478Z,33.60
2019-03-20T12:24:48.343Z,33.20
2019-03-20T12:27:19.314Z,32.60
2019-03-20T12:29:50.358Z,33.00
2019-03-20T12:32:21.196Z,32.80
2019-03-20T12:34:51.609Z,32.70
2019-03-20T12:37:22.518Z,32.90
2019-03-20T12:39:53.633Z,32.60
2019-03-20T12:42:24.816Z,32.60
2019-03-20T12:44:55.620Z,33.10
2019-03-20T12:47:26.502Z,32.60
2019-03-20T12:49:58.914Z,31.50
2019-03-20T12:52:29.560Z,31.50
2019-03-20T12:54:59.871Z,31.40
2019-03-20T12:57:30.888Z,31.60
2019-03-20T13:00:02.009Z,30.90
2019-03-20T13:02:34.405Z,30.80
2019-03-20T13:05:05.375Z,31.30
2019-03-20T13:07:36.012Z,31.80
2019-03-20T13:10:07.784Z,32.00
2019-03-20T13:12:38.375Z,32.00
2019-03-20T13:15:10.677Z,31.60
2019-03-20T13:17:40.889Z,31.80
2019-03-20T13:20:11.537Z,31.30
2019-03-20T13:22:42.971Z,30.70
2019-03-20T13:25:14.095Z,30.80
2019-03-20T13:27:44.284Z,30.30
2019-03-20T13:30:20.321Z,30.10
2019-03-20T13:32:50.177Z,30.20
2019-03-20T13:35:20.978Z,30.50
2019-03-20T13:37:51.722Z,30.20
2019-03-20T13:40:22.179Z,30.60
2019-03-20T13:42:53.193Z,30.40
2019-03-20T13:45:24.287Z,31.20
2019-03-20T13:47:54.825Z,30.20
2019-03-20T13:50:39.209Z,30.00
2019-03-20T13:53:00.447Z,29.80
2019-03-20T13:55:31.402Z,29.50
2019-03-20T13:58:01.866Z,29.40
2019-03-20T14:00:33.028Z,29.90
2019-03-20T14:03:03.815Z,29.80
2019-03-20T14:05:34.179Z,29.70
2019-03-20T14:08:05.868Z,29.90
2019-03-20T14:10:49.387Z,29.90
2019-03-20T14:13:08.959Z,30.00
2019-03-20T14:15:39.099Z,29.90
2019-03-20T14:18:09.687Z,29.90
2019-03-20T14:20:40.147Z,29.80
2019-03-20T14:23:11.148Z,30.10
2019-03-20T14:25:41.123Z,29.70
2019-03-20T14:28:12.618Z,30.00
2019-03-20T14:30:43.767Z,29.70
2019-03-20T14:33:14.533Z,29.30
2019-03-20T14:35:45.086Z,28.70
2019-03-20T14:38:15.785Z,28.50
2019-03-20T14:40:46.255Z,27.90
2019-03-20T14:43:17.040Z,28.10
2019-03-20T14:45:47.862Z,28.00
2019-03-20T14:48:18.491Z,28.50
2019-03-20T14:50:49.272Z,28.90
2019-03-20T14:53:19.487Z,29.20
2019-03-20T14:55:50.337Z,29.60
2019-03-20T14:58:20.401Z,29.50
2019-03-20T15:00:50.528Z,29.50
2019-03-20T15:03:22.547Z,29.70
2019-03-20T15:05:53.024Z,29.60
2019-03-20T15:08:24.032Z,29.90
2019-03-20T15:10:54.975Z,29.80
2019-03-20T15:13:27.123Z,29.80
2019-03-20T15:16:01.812Z,29.40
2019-03-20T15:18:33.135Z,29.00
2019-03-20T15:21:03.874Z,29.60
2019-03-20T15:23:34.524Z,29.60
2019-03-20T15:26:06.574Z,29.50
2019-03-20T15:28:37.730Z,29.20
2019-03-20T15:31:08.398Z,29.50
2019-03-20T15:33:38.721Z,29.30
2019-03-20T15:36:10.496Z,28.70
2019-03-20T15:38:42.121Z,29.30
2019-03-20T15:41:13.971Z,29.40
2019-03-20T15:43:46.668Z,29.50
2019-03-20T15:46:17.398Z,29.90
2019-03-20T15:48:48.757Z,31.00
2019-03-20T15:51:19.904Z,30.90
2019-03-20T15:53:50.506Z,31.10
2019-03-20T15:56:21.385Z,31.40
2019-03-20T15:58:52.736Z,31.00
2019-03-20T16:01:23.468Z,31.00
2019-03-20T16:03:54.198Z,31.90
2019-03-20T16:06:25.354Z,31.70
2019-03-20T16:08:56.967Z,31.60
2019-03-20T16:11:27.862Z,32.30
2019-03-20T16:13:58.546Z,32.20
2019-03-20T16:16:30.563Z,31.80
2019-03-20T16:19:01.451Z,32.40
2019-03-20T16:21:31.789Z,32.00
2019-03-20T16:24:02.926Z,32.30
2019-03-20T16:26:33.328Z,32.90
2019-03-20T16:29:04.043Z,33.60
2019-03-20T16:31:36.976Z,34.00
2019-03-20T16:34:07.734Z,34.30
2019-03-20T16:36:38.379Z,34.70
2019-03-20T16:39:09.254Z,34.70
2019-03-20T16:41:40.146Z,35.10
2019-03-20T16:44:11.555Z,35.40
2019-03-20T16:46:42.406Z,36.10
2019-03-20T16:49:15.484Z,36.50
2019-03-20T16:51:46.233Z,37.20
2019-03-20T16:54:16.306Z,37.90
2019-03-20T16:56:46.911Z,38.20
2019-03-20T16:59:18.233Z,38.50
2019-03-20T17:01:48.770Z,39.20
2019-03-20T17:04:20.325Z,39.60
2019-03-20T17:06:52.229Z,39.80
2019-03-20T17:09:23.115Z,40.10
2019-03-20T17:11:53.887Z,40.10
2019-03-20T17:14:24.445Z,40.40
2019-03-20T17:16:55.399Z,41.00
2019-03-20T17:19:26.181Z,41.20
2019-03-20T17:21:57.211Z,41.40
2019-03-20T17:24:27.777Z,41.50
2019-03-20T17:26:58.754Z,41.60
2019-03-20T17:29:29.381Z,41.80
2019-03-20T17:32:00.480Z,42.20
2019-03-20T17:34:30.993Z,42.40
2019-03-20T17:37:01.775Z,42.80
2019-03-20T17:39:32.917Z,43.30
2019-03-20T17:42:03.249Z,43.90
2019-03-20T17:44:34.197Z,44.20
2019-03-20T17:47:04.934Z,44.80
2019-03-20T17:49:36.162Z,45.00
2019-03-20T17:52:06.931Z,45.30
2019-03-20T17:54:36.944Z,45.80
2019-03-20T17:57:07.479Z,46.70
2019-03-20T17:59:38.907Z,47.20
2019-03-20T18:02:09.840Z,47.60
2019-03-20T18:04:40.154Z,47.70
2019-03-20T18:07:10.847Z,47.90
2019-03-20T18:09:41.924Z,48.90
2019-03-20T18:12:12.152Z,48.50
2019-03-20T18:14:42.855Z,48.60
2019-03-20T18:17:13.665Z,48.70
2019-03-20T18:19:43.595Z,48.90
2019-03-20T18:22:14.196Z,49.10
2019-03-20T18:24:45.151Z,49.80
2019-03-20T18:27:15.943Z,50.40
2019-03-20T18:29:46.679Z,50.40
2019-03-20T18:32:17.803Z,50.40
2019-03-20T18:34:49.174Z,50.30
2019-03-20T18:37:19.322Z,50.50
2019-03-20T18:39:50.080Z,50.90
2019-03-20T18:42:20.368Z,51.30
2019-03-20T18:44:51.538Z,51.90
2019-03-20T18:47:22.356Z,52.30
2019-03-20T18:49:53.398Z,52.20
2019-03-20T18:52:24.404Z,52.40
2019-03-20T18:54:54.612Z,52.80
2019-03-20T18:57:25.812Z,52.80
2019-03-20T18:59:56.560Z,53.00
2019-03-20T19:02:27.274Z,53.50
2019-03-20T19:04:58.104Z,53.80
2019-03-20T19:07:30.014Z,54.50
2019-03-20T19:10:00.388Z,55.00
2019-03-20T19:12:32.104Z,55.10
2019-03-20T19:15:03.037Z,55.40
2019-03-20T19:17:33.635Z,55.50
2019-03-20T19:20:05.692Z,55.60
2019-03-20T19:22:37.899Z,55.70
2019-03-20T19:25:09.266Z,56.00
2019-03-20T19:27:40.143Z,56.30
2019-03-20T19:30:15.330Z,56.50
2019-03-20T19:32:47.022Z,56.60
2019-03-20T19:35:18.160Z,57.50
2019-03-20T19:37:49.097Z,57.80
2019-03-20T19:40:20.458Z,58.20
2019-03-20T19:42:52.206Z,58.30
2019-03-20T19:45:23.181Z,58.40
2019-03-20T19:47:54.524Z,58.60
2019-03-20T19:50:29.972Z,58.90
2019-03-20T19:53:01.119Z,58.90
2019-03-20T19:55:31.637Z,59.30
2019-03-20T19:58:02.387Z,59.50
2019-03-20T20:00:32.873Z,59.80
2019-03-20T20:03:03.258Z,60.00
2019-03-20T20:05:33.988Z,60.20
2019-03-20T20:08:04.867Z,60.60
2019-03-20T20:10:35.886Z,61.50
2019-03-20T20:13:06.282Z,62.20
2019-03-20T20:15:36.911Z,62.10
2019-03-20T20:18:07.675Z,62.30
2019-03-20T20:20:38.616Z,62.40
2019-03-20T20:23:09.749Z,62.70
2019-03-20T20:25:40.868Z,62.50
2019-03-20T20:28:12.069Z,62.50
2019-03-20T20:30:42.798Z,62.60
2019-03-20T20:33:13.957Z,62.90
2019-03-20T20:35:44.488Z,62.90
2019-03-20T20:38:16.655Z,63.20
2019-03-20T20:40:47.606Z,63.50
2019-03-20T20:43:18.547Z,63.80
2019-03-20T20:45:49.487Z,64.30
2019-03-20T20:48:20.438Z,64.80
2019-03-20T20:50:51.517Z,65.20
2019-03-20T20:53:23.520Z,65.30
2019-03-20T20:55:54.291Z,65.90
2019-03-20T20:58:24.819Z,65.90
2019-03-20T21:00:55.569Z,65.80
2019-03-20T21:03:26.301Z,66.00
2019-03-20T21:05:57.031Z,66.20
2019-03-20T21:08:27.568Z,66.80
2019-03-20T21:10:58.517Z,67.00
2019-03-20T21:13:29.591Z,67.30
2019-03-20T21:16:03.062Z,68.30
2019-03-20T21:19:12.923Z,69.00
2019-03-20T21:22:20.562Z,69.70
2019-03-20T21:24:52.089Z,69.70
2019-03-20T21:28:00.506Z,70.00
2019-03-20T21:30:45.996Z,70.20
2019-03-20T21:33:50.928Z,71.30
2019-03-20T21:37:01.144Z,72.20
2019-03-20T21:39:32.707Z,72.90
2019-03-20T21:43:06.921Z,73.20
2019-03-20T21:45:45.717Z,73.20
2019-03-20T21:48:16.993Z,74.00
2019-03-20T21:51:22.418Z,74.40
2019-03-20T21:54:37.389Z,74.80
2019-03-20T21:57:45.194Z,75.10
2019-03-20T22:01:10.414Z,76.10
2019-03-20T22:03:43.771Z,76.60
2019-03-20T22:06:49.671Z,76.80
2019-03-20T22:09:58.623Z,77.00
2019-03-20T22:12:34.238Z,77.50
2019-03-20T22:15:28.298Z,78.50
2019-03-20T22:18:37.804Z,79.10
2019-03-20T22:21:19.600Z,79.90
2019-03-20T22:24:34.373Z,81.20
2019-03-20T22:27:41.514Z,82.60
2019-03-20T22:30:13.105Z,83.40
2019-03-20T22:33:23.180Z,83.90
2019-03-20T22:35:58.222Z,84.40
2019-03-20T22:39:01.324Z,85.20
2019-03-20T22:42:07.291Z,85.20
2019-03-20T22:44:44.178Z,85.10
2019-03-20T22:48:07.284Z,85.60
2019-03-20T22:50:51.544Z,86.00
2019-03-20T22:54:10.874Z,88.10
2019-03-20T22:57:18.320Z,88.70
2019-03-20T22:59:50.006Z,89.10
2019-03-20T23:02:33.061Z,90.40
2019-03-20T23:05:05.850Z,90.50
2019-03-20T23:07:37.206Z,91.10
2019-03-20T23:10:11.445Z,91.90
2019-03-20T23:12:42.364Z,92.40
2019-03-20T23:15:16.584Z,93.00
2019-03-20T23:17:48.154Z,93.80
2019-03-20T23:20:22.086Z,94.20
2019-03-20T23:22:53.096Z,94.80
2019-03-20T23:25:24.661Z,95.40
2019-03-20T23:27:56.894Z,96.60
2019-03-20T23:30:28.591Z,97.40
2019-03-20T23:33:00.360Z,97.80
2019-03-20T23:35:32.601Z,97.80
2019-03-20T23:38:03.547Z,98.10
2019-03-20T23:40:36.052Z,98.40
2019-03-20T23:43:07.758Z,98.50
2019-03-20T23:45:39.166Z,98.60
2019-03-20T23:48:14.872Z,98.90
2019-03-20T23:50:46.380Z,99.30
2019-03-20T23:53:17.476Z,99.50
2019-03-20T23:55:49.704Z,99.80
2019-03-20T23:58:21.256Z,99.90
